sensor_id;sensor_type;location;lat;lon;timestamp;P1;durP1;ratioP1;P2;durP2;ratioP2
12968;SDS011;6549;53.128;8.182;2022-08-25T00:00:28;6.13;;;3.45;;
12968;SDS011;6549;53.128;8.182;2022-08-25T00:03:28;5.00;;;3.40;;
12968;SDS011;6549;53.128;8.182;2022-08-25T00:06:29;6.75;;;4.00;;
12968;SDS011;6549;53.128;8.182;2022-08-25T00:09:30;6.25;;;3.97;;
12968;SDS011;6549;53.128;8.182;2022-08-25T00:12:32;7.85;;;3.83;;
12968;SDS011;6549;53.128;8.182;2022-08-25T00:15:32;4.68;;;3.30;;
12968;SDS011;6549;53.128;8.182;2022-08-25T00:18:33;8.02;;;3.60;;
12968;SDS011;6549;53.128;8.182;2022-08-25T00:21:33;6.28;;;3.30;;
12968;SDS011;6549;53.128;8.182;2022-08-25T00:24:34;8.18;;;4.10;;
12968;SDS011;6549;53.128;8.182;2022-08-25T00:27:34;7.60;;;3.65;;
12968;SDS011;6549;53.128;8.182;2022-08-25T00:30:35;5.38;;;3.42;;
12968;SDS011;6549;53.128;8.182;2022-08-25T00:33:35;5.40;;;3.80;;
12968;SDS011;6549;53.128;8.182;2022-08-25T00:36:36;5.13;;;3.25;;
12968;SDS011;6549;53.128;8.182;2022-08-25T00:39:37;5.35;;;3.60;;
12968;SDS011;6549;53.128;8.182;2022-08-25T00:42:38;5.70;;;3.10;;
12968;SDS011;6549;53.128;8.182;2022-08-25T00:45:40;4.85;;;3.58;;
12968;SDS011;6549;53.128;8.182;2022-08-25T00:48:41;4.57;;;3.08;;
12968;SDS011;6549;53.128;8.182;2022-08-25T00:51:59;5.13;;;3.30;;
12968;SDS011;6549;53.128;8.182;2022-08-25T00:55:16;5.13;;;3.70;;
12968;SDS011;6549;53.128;8.182;2022-08-25T00:58:22;5.38;;;3.55;;
12968;SDS011;6549;53.128;8.182;2022-08-25T01:01:25;6.95;;;3.72;;
12968;SDS011;6549;53.128;8.182;2022-08-25T01:04:26;5.00;;;3.78;;
12968;SDS011;6549;53.128;8.182;2022-08-25T01:07:26;7.10;;;3.92;;
12968;SDS011;6549;53.128;8.182;2022-08-25T01:10:27;8.13;;;4.60;;
12968;SDS011;6549;53.128;8.182;2022-08-25T01:13:29;4.68;;;3.53;;
12968;SDS011;6549;53.128;8.182;2022-08-25T01:16:33;6.53;;;4.20;;
12968;SDS011;6549;53.128;8.182;2022-08-25T01:19:36;7.57;;;3.65;;
12968;SDS011;6549;53.128;8.182;2022-08-25T01:22:36;7.05;;;4.30;;
12968;SDS011;6549;53.128;8.182;2022-08-25T01:25:57;5.80;;;4.00;;
12968;SDS011;6549;53.128;8.182;2022-08-25T01:29:03;6.57;;;4.50;;
12968;SDS011;6549;53.128;8.182;2022-08-25T01:32:20;10.70;;;4.50;;
12968;SDS011;6549;53.128;8.182;2022-08-25T01:35:21;5.30;;;3.97;;
12968;SDS011;6549;53.128;8.182;2022-08-25T01:38:21;7.82;;;4.05;;
12968;SDS011;6549;53.128;8.182;2022-08-25T01:44:32;6.65;;;4.10;;
12968;SDS011;6549;53.128;8.182;2022-08-25T01:51:04;5.32;;;4.05;;
12968;SDS011;6549;53.128;8.182;2022-08-25T01:54:06;7.10;;;3.90;;
12968;SDS011;6549;53.128;8.182;2022-08-25T01:57:09;7.05;;;4.57;;
12968;SDS011;6549;53.128;8.182;2022-08-25T02:00:13;6.72;;;4.60;;
12968;SDS011;6549;53.128;8.182;2022-08-25T02:03:15;5.95;;;4.15;;
12968;SDS011;6549;53.128;8.182;2022-08-25T02:09:22;9.90;;;4.80;;
12968;SDS011;6549;53.128;8.182;2022-08-25T02:12:23;6.13;;;4.28;;
12968;SDS011;6549;53.128;8.182;2022-08-25T02:15:24;7.13;;;5.00;;
12968;SDS011;6549;53.128;8.182;2022-08-25T02:18:43;8.27;;;4.85;;
12968;SDS011;6549;53.128;8.182;2022-08-25T02:21:45;7.88;;;4.72;;
12968;SDS011;6549;53.128;8.182;2022-08-25T02:24:45;7.55;;;4.90;;
12968;SDS011;6549;53.128;8.182;2022-08-25T02:27:46;7.10;;;4.38;;
12968;SDS011;6549;53.128;8.182;2022-08-25T02:30:47;7.97;;;4.70;;
12968;SDS011;6549;53.128;8.182;2022-08-25T02:33:47;7.43;;;5.03;;
12968;SDS011;6549;53.128;8.182;2022-08-25T02:36:48;10.30;;;5.43;;
12968;SDS011;6549;53.128;8.182;2022-08-25T02:39:49;6.72;;;4.53;;
12968;SDS011;6549;53.128;8.182;2022-08-25T02:42:49;10.52;;;4.90;;
12968;SDS011;6549;53.128;8.182;2022-08-25T02:45:50;7.38;;;4.70;;
12968;SDS011;6549;53.128;8.182;2022-08-25T02:48:51;8.77;;;4.80;;
12968;SDS011;6549;53.128;8.182;2022-08-25T02:51:52;9.77;;;5.00;;
12968;SDS011;6549;53.128;8.182;2022-08-25T02:54:53;8.95;;;5.43;;
12968;SDS011;6549;53.128;8.182;2022-08-25T02:57:54;6.85;;;4.70;;
12968;SDS011;6549;53.128;8.182;2022-08-25T03:00:54;13.18;;;6.22;;
12968;SDS011;6549;53.128;8.182;2022-08-25T03:03:55;8.98;;;5.68;;
12968;SDS011;6549;53.128;8.182;2022-08-25T03:06:57;8.05;;;5.55;;
12968;SDS011;6549;53.128;8.182;2022-08-25T03:09:58;7.05;;;5.28;;
12968;SDS011;6549;53.128;8.182;2022-08-25T03:12:58;8.27;;;5.47;;
12968;SDS011;6549;53.128;8.182;2022-08-25T03:15:59;6.85;;;5.18;;
12968;SDS011;6549;53.128;8.182;2022-08-25T03:19:00;9.18;;;6.13;;
12968;SDS011;6549;53.128;8.182;2022-08-25T03:22:00;12.50;;;6.47;;
12968;SDS011;6549;53.128;8.182;2022-08-25T03:25:01;12.23;;;6.10;;
12968;SDS011;6549;53.128;8.182;2022-08-25T03:28:21;14.88;;;6.40;;
12968;SDS011;6549;53.128;8.182;2022-08-25T03:31:22;8.18;;;5.78;;
12968;SDS011;6549;53.128;8.182;2022-08-25T03:34:25;8.00;;;6.18;;
12968;SDS011;6549;53.128;8.182;2022-08-25T03:40:27;11.50;;;6.33;;
12968;SDS011;6549;53.128;8.182;2022-08-25T03:43:28;11.18;;;5.90;;
12968;SDS011;6549;53.128;8.182;2022-08-25T03:46:30;7.55;;;6.22;;
12968;SDS011;6549;53.128;8.182;2022-08-25T03:49:33;8.93;;;5.50;;
12968;SDS011;6549;53.128;8.182;2022-08-25T03:52:34;8.23;;;5.93;;
12968;SDS011;6549;53.128;8.182;2022-08-25T03:55:35;8.40;;;6.35;;
12968;SDS011;6549;53.128;8.182;2022-08-25T03:58:35;9.45;;;6.20;;
12968;SDS011;6549;53.128;8.182;2022-08-25T04:01:36;9.88;;;6.53;;
12968;SDS011;6549;53.128;8.182;2022-08-25T04:04:37;8.15;;;6.50;;
12968;SDS011;6549;53.128;8.182;2022-08-25T04:07:39;11.10;;;6.27;;
12968;SDS011;6549;53.128;8.182;2022-08-25T04:10:40;8.88;;;6.07;;
12968;SDS011;6549;53.128;8.182;2022-08-25T04:13:40;9.73;;;6.15;;
12968;SDS011;6549;53.128;8.182;2022-08-25T04:16:46;13.45;;;7.82;;
12968;SDS011;6549;53.128;8.182;2022-08-25T04:19:47;11.27;;;7.30;;
12968;SDS011;6549;53.128;8.182;2022-08-25T04:22:47;9.07;;;7.15;;
12968;SDS011;6549;53.128;8.182;2022-08-25T04:25:47;10.45;;;7.13;;
12968;SDS011;6549;53.128;8.182;2022-08-25T04:28:48;9.07;;;6.78;;
12968;SDS011;6549;53.128;8.182;2022-08-25T04:31:48;9.15;;;6.88;;
12968;SDS011;6549;53.128;8.182;2022-08-25T04:34:49;14.82;;;7.72;;
12968;SDS011;6549;53.128;8.182;2022-08-25T04:37:50;10.80;;;7.88;;
12968;SDS011;6549;53.128;8.182;2022-08-25T04:40:57;11.23;;;7.60;;
12968;SDS011;6549;53.128;8.182;2022-08-25T04:43:59;11.95;;;8.00;;
12968;SDS011;6549;53.128;8.182;2022-08-25T04:47:00;10.93;;;7.57;;
12968;SDS011;6549;53.128;8.182;2022-08-25T04:50:00;12.15;;;8.40;;
12968;SDS011;6549;53.128;8.182;2022-08-25T04:53:01;11.15;;;8.18;;
12968;SDS011;6549;53.128;8.182;2022-08-25T04:56:04;13.63;;;8.68;;
12968;SDS011;6549;53.128;8.182;2022-08-25T04:59:09;12.38;;;8.65;;
12968;SDS011;6549;53.128;8.182;2022-08-25T05:02:11;10.48;;;7.97;;
12968;SDS011;6549;53.128;8.182;2022-08-25T05:05:11;12.02;;;8.63;;
12968;SDS011;6549;53.128;8.182;2022-08-25T05:08:11;9.65;;;8.07;;
12968;SDS011;6549;53.128;8.182;2022-08-25T05:11:12;11.85;;;9.30;;
12968;SDS011;6549;53.128;8.182;2022-08-25T05:14:16;12.10;;;9.35;;
12968;SDS011;6549;53.128;8.182;2022-08-25T05:17:20;11.73;;;8.80;;
12968;SDS011;6549;53.128;8.182;2022-08-25T05:20:20;13.95;;;9.52;;
12968;SDS011;6549;53.128;8.182;2022-08-25T05:23:22;12.73;;;9.43;;
12968;SDS011;6549;53.128;8.182;2022-08-25T05:26:24;16.95;;;10.40;;
12968;SDS011;6549;53.128;8.182;2022-08-25T05:29:26;12.93;;;9.95;;
12968;SDS011;6549;53.128;8.182;2022-08-25T05:32:26;11.75;;;9.57;;
12968;SDS011;6549;53.128;8.182;2022-08-25T05:35:26;13.75;;;10.32;;
12968;SDS011;6549;53.128;8.182;2022-08-25T05:38:27;13.65;;;10.88;;
12968;SDS011;6549;53.128;8.182;2022-08-25T05:41:28;14.30;;;9.73;;
12968;SDS011;6549;53.128;8.182;2022-08-25T05:44:29;14.50;;;9.90;;
12968;SDS011;6549;53.128;8.182;2022-08-25T05:47:30;16.15;;;10.10;;
12968;SDS011;6549;53.128;8.182;2022-08-25T05:50:31;15.55;;;10.38;;
12968;SDS011;6549;53.128;8.182;2022-08-25T05:53:32;12.52;;;9.95;;
12968;SDS011;6549;53.128;8.182;2022-08-25T05:56:32;14.43;;;10.65;;
12968;SDS011;6549;53.128;8.182;2022-08-25T05:59:33;14.43;;;10.15;;
12968;SDS011;6549;53.128;8.182;2022-08-25T06:02:33;12.82;;;9.38;;
12968;SDS011;6549;53.128;8.182;2022-08-25T06:05:40;15.90;;;11.52;;
12968;SDS011;6549;53.128;8.182;2022-08-25T06:08:41;14.52;;;10.75;;
12968;SDS011;6549;53.128;8.182;2022-08-25T06:14:43;14.50;;;10.63;;
12968;SDS011;6549;53.128;8.182;2022-08-25T06:17:44;14.48;;;10.70;;
12968;SDS011;6549;53.128;8.182;2022-08-25T06:20:44;15.50;;;11.32;;
12968;SDS011;6549;53.128;8.182;2022-08-25T06:23:45;15.63;;;10.55;;
12968;SDS011;6549;53.128;8.182;2022-08-25T06:26:45;12.93;;;10.57;;
12968;SDS011;6549;53.128;8.182;2022-08-25T06:29:45;14.40;;;11.07;;
12968;SDS011;6549;53.128;8.182;2022-08-25T06:32:46;14.40;;;10.70;;
12968;SDS011;6549;53.128;8.182;2022-08-25T06:35:48;13.35;;;10.52;;
12968;SDS011;6549;53.128;8.182;2022-08-25T06:38:53;14.13;;;10.88;;
12968;SDS011;6549;53.128;8.182;2022-08-25T06:41:54;14.82;;;11.07;;
12968;SDS011;6549;53.128;8.182;2022-08-25T06:44:55;15.52;;;12.10;;
12968;SDS011;6549;53.128;8.182;2022-08-25T06:47:56;14.88;;;11.25;;
12968;SDS011;6549;53.128;8.182;2022-08-25T06:50:58;18.00;;;11.43;;
12968;SDS011;6549;53.128;8.182;2022-08-25T06:53:58;13.60;;;10.18;;
12968;SDS011;6549;53.128;8.182;2022-08-25T06:56:59;15.60;;;11.57;;
12968;SDS011;6549;53.128;8.182;2022-08-25T07:00:00;15.90;;;11.02;;
12968;SDS011;6549;53.128;8.182;2022-08-25T07:03:01;13.68;;;10.63;;
12968;SDS011;6549;53.128;8.182;2022-08-25T07:06:04;12.73;;;10.52;;
12968;SDS011;6549;53.128;8.182;2022-08-25T07:09:05;15.50;;;11.55;;
12968;SDS011;6549;53.128;8.182;2022-08-25T07:12:07;16.88;;;11.45;;
12968;SDS011;6549;53.128;8.182;2022-08-25T07:15:08;15.07;;;11.30;;
12968;SDS011;6549;53.128;8.182;2022-08-25T07:18:09;15.82;;;11.82;;
12968;SDS011;6549;53.128;8.182;2022-08-25T07:21:11;13.52;;;9.95;;
12968;SDS011;6549;53.128;8.182;2022-08-25T07:24:12;15.20;;;10.85;;
12968;SDS011;6549;53.128;8.182;2022-08-25T07:27:13;14.45;;;10.05;;
12968;SDS011;6549;53.128;8.182;2022-08-25T07:30:15;15.23;;;10.68;;
12968;SDS011;6549;53.128;8.182;2022-08-25T07:33:16;14.98;;;10.50;;
12968;SDS011;6549;53.128;8.182;2022-08-25T07:36:16;14.45;;;10.95;;
12968;SDS011;6549;53.128;8.182;2022-08-25T07:39:16;15.05;;;11.43;;
12968;SDS011;6549;53.128;8.182;2022-08-25T07:42:17;15.93;;;11.27;;
12968;SDS011;6549;53.128;8.182;2022-08-25T07:45:18;15.07;;;11.07;;
12968;SDS011;6549;53.128;8.182;2022-08-25T07:48:19;14.45;;;9.63;;
12968;SDS011;6549;53.128;8.182;2022-08-25T07:51:20;14.82;;;10.20;;
12968;SDS011;6549;53.128;8.182;2022-08-25T07:54:20;12.48;;;10.55;;
12968;SDS011;6549;53.128;8.182;2022-08-25T07:57:21;17.35;;;11.27;;
12968;SDS011;6549;53.128;8.182;2022-08-25T08:00:25;13.98;;;9.77;;
12968;SDS011;6549;53.128;8.182;2022-08-25T08:03:28;12.32;;;9.10;;
12968;SDS011;6549;53.128;8.182;2022-08-25T08:06:29;11.88;;;9.50;;
12968;SDS011;6549;53.128;8.182;2022-08-25T08:09:29;10.75;;;9.30;;
12968;SDS011;6549;53.128;8.182;2022-08-25T08:12:30;11.05;;;8.60;;
12968;SDS011;6549;53.128;8.182;2022-08-25T08:15:30;13.18;;;9.48;;
12968;SDS011;6549;53.128;8.182;2022-08-25T08:18:31;10.15;;;8.65;;
12968;SDS011;6549;53.128;8.182;2022-08-25T08:21:32;15.75;;;9.57;;
12968;SDS011;6549;53.128;8.182;2022-08-25T08:24:34;12.05;;;9.30;;
12968;SDS011;6549;53.128;8.182;2022-08-25T08:27:38;13.70;;;9.15;;
12968;SDS011;6549;53.128;8.182;2022-08-25T08:30:38;14.57;;;8.55;;
12968;SDS011;6549;53.128;8.182;2022-08-25T08:33:38;12.43;;;9.10;;
12968;SDS011;6549;53.128;8.182;2022-08-25T08:36:39;11.02;;;8.65;;
12968;SDS011;6549;53.128;8.182;2022-08-25T08:39:39;11.70;;;8.82;;
12968;SDS011;6549;53.128;8.182;2022-08-25T08:42:53;11.60;;;8.57;;
12968;SDS011;6549;53.128;8.182;2022-08-25T08:46:03;11.50;;;8.25;;
12968;SDS011;6549;53.128;8.182;2022-08-25T08:49:05;11.30;;;7.40;;
12968;SDS011;6549;53.128;8.182;2022-08-25T08:52:16;11.90;;;8.65;;
12968;SDS011;6549;53.128;8.182;2022-08-25T08:55:31;10.52;;;7.28;;
12968;SDS011;6549;53.128;8.182;2022-08-25T08:58:39;10.30;;;8.30;;
12968;SDS011;6549;53.128;8.182;2022-08-25T09:01:56;10.15;;;7.18;;
12968;SDS011;6549;53.128;8.182;2022-08-25T09:05:09;11.85;;;7.55;;
12968;SDS011;6549;53.128;8.182;2022-08-25T09:08:14;11.75;;;7.70;;
12968;SDS011;6549;53.128;8.182;2022-08-25T09:31:40;8.85;;;7.30;;
12968;SDS011;6549;53.128;8.182;2022-08-25T09:34:41;10.05;;;7.55;;
12968;SDS011;6549;53.128;8.182;2022-08-25T09:38:05;9.32;;;7.43;;
12968;SDS011;6549;53.128;8.182;2022-08-25T09:41:05;10.30;;;6.68;;
12968;SDS011;6549;53.128;8.182;2022-08-25T09:44:15;13.73;;;7.32;;
12968;SDS011;6549;53.128;8.182;2022-08-25T09:47:36;9.45;;;6.70;;
12968;SDS011;6549;53.128;8.182;2022-08-25T09:50:42;9.68;;;7.80;;
12968;SDS011;6549;53.128;8.182;2022-08-25T09:53:45;11.00;;;7.70;;
12968;SDS011;6549;53.128;8.182;2022-08-25T10:00:18;9.85;;;7.13;;
12968;SDS011;6549;53.128;8.182;2022-08-25T10:03:24;9.60;;;7.78;;
12968;SDS011;6549;53.128;8.182;2022-08-25T10:06:29;10.55;;;7.10;;
12968;SDS011;6549;53.128;8.182;2022-08-25T10:09:35;14.48;;;8.32;;
12968;SDS011;6549;53.128;8.182;2022-08-25T10:12:40;7.35;;;6.65;;
12968;SDS011;6549;53.128;8.182;2022-08-25T10:15:43;10.73;;;6.32;;
12968;SDS011;6549;53.128;8.182;2022-08-25T10:18:44;10.07;;;6.97;;
12968;SDS011;6549;53.128;8.182;2022-08-25T10:21:44;10.48;;;7.05;;
12968;SDS011;6549;53.128;8.182;2022-08-25T10:25:03;8.38;;;6.47;;
12968;SDS011;6549;53.128;8.182;2022-08-25T10:28:11;11.30;;;6.43;;
12968;SDS011;6549;53.128;8.182;2022-08-25T10:31:23;13.60;;;6.70;;
12968;SDS011;6549;53.128;8.182;2022-08-25T10:34:37;7.88;;;6.20;;
12968;SDS011;6549;53.128;8.182;2022-08-25T10:37:50;8.52;;;6.55;;
12968;SDS011;6549;53.128;8.182;2022-08-25T10:44:42;8.75;;;7.25;;
12968;SDS011;6549;53.128;8.182;2022-08-25T10:51:38;7.10;;;6.30;;
12968;SDS011;6549;53.128;8.182;2022-08-25T10:55:10;11.18;;;7.10;;
12968;SDS011;6549;53.128;8.182;2022-08-25T11:02:22;8.00;;;5.90;;
12968;SDS011;6549;53.128;8.182;2022-08-25T11:08:52;11.23;;;7.03;;
12968;SDS011;6549;53.128;8.182;2022-08-25T11:11:57;9.35;;;6.38;;
12968;SDS011;6549;53.128;8.182;2022-08-25T11:15:09;9.23;;;6.15;;
12968;SDS011;6549;53.128;8.182;2022-08-25T11:18:14;7.60;;;6.15;;
12968;SDS011;6549;53.128;8.182;2022-08-25T11:21:16;9.90;;;5.60;;
12968;SDS011;6549;53.128;8.182;2022-08-25T11:24:38;12.02;;;6.22;;
12968;SDS011;6549;53.128;8.182;2022-08-25T11:31:07;7.65;;;5.32;;
12968;SDS011;6549;53.128;8.182;2022-08-25T11:34:09;6.75;;;5.38;;
12968;SDS011;6549;53.128;8.182;2022-08-25T11:37:18;7.38;;;5.43;;
12968;SDS011;6549;53.128;8.182;2022-08-25T11:40:33;7.32;;;5.30;;
12968;SDS011;6549;53.128;8.182;2022-08-25T11:47:42;8.52;;;4.90;;
12968;SDS011;6549;53.128;8.182;2022-08-25T11:50:55;6.55;;;5.38;;
12968;SDS011;6549;53.128;8.182;2022-08-25T11:54:14;7.00;;;4.70;;
12968;SDS011;6549;53.128;8.182;2022-08-25T11:57:20;8.90;;;4.90;;
12968;SDS011;6549;53.128;8.182;2022-08-25T12:00:36;6.22;;;4.88;;
12968;SDS011;6549;53.128;8.182;2022-08-25T12:10:19;8.07;;;5.15;;
12968;SDS011;6549;53.128;8.182;2022-08-25T12:14:07;7.70;;;5.65;;
12968;SDS011;6549;53.128;8.182;2022-08-25T12:19:51;7.97;;;5.35;;
12968;SDS011;6549;53.128;8.182;2022-08-25T12:22:55;8.43;;;5.45;;
12968;SDS011;6549;53.128;8.182;2022-08-25T12:25:57;12.07;;;5.93;;
12968;SDS011;6549;53.128;8.182;2022-08-25T12:38:31;10.32;;;5.80;;
12968;SDS011;6549;53.128;8.182;2022-08-25T12:41:37;10.50;;;5.63;;
12968;SDS011;6549;53.128;8.182;2022-08-25T12:54:52;9.57;;;5.40;;
12968;SDS011;6549;53.128;8.182;2022-08-25T12:57:58;10.20;;;5.50;;
12968;SDS011;6549;53.128;8.182;2022-08-25T13:11:27;8.35;;;5.38;;
12968;SDS011;6549;53.128;8.182;2022-08-25T13:14:38;7.70;;;5.70;;
12968;SDS011;6549;53.128;8.182;2022-08-25T13:17:41;7.55;;;4.75;;
12968;SDS011;6549;53.128;8.182;2022-08-25T13:20:41;6.27;;;4.90;;
12968;SDS011;6549;53.128;8.182;2022-08-25T13:23:44;8.90;;;5.15;;
12968;SDS011;6549;53.128;8.182;2022-08-25T13:26:47;7.15;;;5.18;;
12968;SDS011;6549;53.128;8.182;2022-08-25T13:29:53;7.38;;;5.25;;
12968;SDS011;6549;53.128;8.182;2022-08-25T13:32:56;9.13;;;5.25;;
12968;SDS011;6549;53.128;8.182;2022-08-25T13:35:57;7.03;;;5.70;;
12968;SDS011;6549;53.128;8.182;2022-08-25T13:39:22;6.82;;;5.38;;
12968;SDS011;6549;53.128;8.182;2022-08-25T13:42:23;7.22;;;5.25;;
12968;SDS011;6549;53.128;8.182;2022-08-25T13:45:25;10.13;;;5.47;;
12968;SDS011;6549;53.128;8.182;2022-08-25T13:48:32;7.05;;;5.30;;
12968;SDS011;6549;53.128;8.182;2022-08-25T13:51:37;9.32;;;5.40;;
12968;SDS011;6549;53.128;8.182;2022-08-25T13:54:49;12.95;;;5.97;;
12968;SDS011;6549;53.128;8.182;2022-08-25T13:57:50;7.37;;;5.43;;
12968;SDS011;6549;53.128;8.182;2022-08-25T14:01:06;8.77;;;5.40;;
12968;SDS011;6549;53.128;8.182;2022-08-25T14:07:27;8.38;;;5.53;;
12968;SDS011;6549;53.128;8.182;2022-08-25T14:10:33;6.93;;;5.60;;
12968;SDS011;6549;53.128;8.182;2022-08-25T14:13:34;8.00;;;5.00;;
12968;SDS011;6549;53.128;8.182;2022-08-25T14:19:43;8.30;;;5.70;;
12968;SDS011;6549;53.128;8.182;2022-08-25T14:22:44;9.93;;;5.97;;
12968;SDS011;6549;53.128;8.182;2022-08-25T14:25:45;8.37;;;6.20;;
12968;SDS011;6549;53.128;8.182;2022-08-25T14:28:46;7.13;;;5.72;;
12968;SDS011;6549;53.128;8.182;2022-08-25T14:31:47;9.93;;;5.68;;
12968;SDS011;6549;53.128;8.182;2022-08-25T14:34:48;8.73;;;5.50;;
12968;SDS011;6549;53.128;8.182;2022-08-25T14:37:48;8.53;;;5.83;;
12968;SDS011;6549;53.128;8.182;2022-08-25T14:40:48;9.33;;;6.37;;
12968;SDS011;6549;53.128;8.182;2022-08-25T14:43:50;12.20;;;6.73;;
12968;SDS011;6549;53.128;8.182;2022-08-25T14:46:54;9.33;;;6.07;;
12968;SDS011;6549;53.128;8.182;2022-08-25T14:49:55;11.55;;;6.13;;
12968;SDS011;6549;53.128;8.182;2022-08-25T14:52:55;8.97;;;5.87;;
12968;SDS011;6549;53.128;8.182;2022-08-25T14:55:56;7.67;;;5.73;;
12968;SDS011;6549;53.128;8.182;2022-08-25T14:58:56;8.87;;;5.93;;
12968;SDS011;6549;53.128;8.182;2022-08-25T15:01:57;8.90;;;6.60;;
12968;SDS011;6549;53.128;8.182;2022-08-25T15:04:59;10.75;;;6.43;;
12968;SDS011;6549;53.128;8.182;2022-08-25T15:08:04;7.90;;;6.03;;
12968;SDS011;6549;53.128;8.182;2022-08-25T15:11:23;7.40;;;5.90;;
12968;SDS011;6549;53.128;8.182;2022-08-25T15:14:24;8.30;;;5.37;;
12968;SDS011;6549;53.128;8.182;2022-08-25T15:17:25;7.90;;;6.03;;
12968;SDS011;6549;53.128;8.182;2022-08-25T15:20:26;11.23;;;6.40;;
12968;SDS011;6549;53.128;8.182;2022-08-25T15:23:27;13.47;;;6.20;;
12968;SDS011;6549;53.128;8.182;2022-08-25T15:26:27;11.13;;;6.40;;
12968;SDS011;6549;53.128;8.182;2022-08-25T15:29:28;7.83;;;6.07;;
12968;SDS011;6549;53.128;8.182;2022-08-25T15:32:30;9.07;;;5.65;;
12968;SDS011;6549;53.128;8.182;2022-08-25T15:35:30;8.00;;;6.03;;
12968;SDS011;6549;53.128;8.182;2022-08-25T15:38:30;9.70;;;6.07;;
12968;SDS011;6549;53.128;8.182;2022-08-25T15:41:31;9.83;;;5.63;;
12968;SDS011;6549;53.128;8.182;2022-08-25T15:44:31;7.70;;;5.80;;
12968;SDS011;6549;53.128;8.182;2022-08-25T15:47:32;8.07;;;5.50;;
12968;SDS011;6549;53.128;8.182;2022-08-25T15:50:32;9.50;;;6.17;;
12968;SDS011;6549;53.128;8.182;2022-08-25T15:56:35;9.52;;;5.47;;
12968;SDS011;6549;53.128;8.182;2022-08-25T15:59:35;10.93;;;5.93;;
12968;SDS011;6549;53.128;8.182;2022-08-25T16:02:36;9.33;;;6.47;;
12968;SDS011;6549;53.128;8.182;2022-08-25T16:05:39;7.78;;;6.07;;
12968;SDS011;6549;53.128;8.182;2022-08-25T16:08:40;7.40;;;5.70;;
12968;SDS011;6549;53.128;8.182;2022-08-25T16:11:42;9.18;;;5.82;;
12968;SDS011;6549;53.128;8.182;2022-08-25T16:14:42;10.47;;;5.70;;
12968;SDS011;6549;53.128;8.182;2022-08-25T16:17:42;10.00;;;6.53;;
12968;SDS011;6549;53.128;8.182;2022-08-25T16:20:44;11.73;;;6.47;;
12968;SDS011;6549;53.128;8.182;2022-08-25T16:23:45;8.73;;;5.72;;
12968;SDS011;6549;53.128;8.182;2022-08-25T16:26:45;8.53;;;5.60;;
12968;SDS011;6549;53.128;8.182;2022-08-25T16:29:46;12.40;;;6.23;;
12968;SDS011;6549;53.128;8.182;2022-08-25T16:32:46;7.37;;;5.53;;
12968;SDS011;6549;53.128;8.182;2022-08-25T16:35:47;9.50;;;6.07;;
12968;SDS011;6549;53.128;8.182;2022-08-25T16:38:47;9.80;;;6.10;;
12968;SDS011;6549;53.128;8.182;2022-08-25T16:41:49;8.77;;;6.05;;
12968;SDS011;6549;53.128;8.182;2022-08-25T16:44:51;10.65;;;6.10;;
12968;SDS011;6549;53.128;8.182;2022-08-25T16:47:51;8.07;;;6.23;;
12968;SDS011;6549;53.128;8.182;2022-08-25T16:50:52;8.37;;;5.87;;
12968;SDS011;6549;53.128;8.182;2022-08-25T16:53:52;8.77;;;6.33;;
12968;SDS011;6549;53.128;8.182;2022-08-25T16:57:11;8.32;;;6.00;;
12968;SDS011;6549;53.128;8.182;2022-08-25T17:00:13;9.83;;;6.73;;
12968;SDS011;6549;53.128;8.182;2022-08-25T17:03:16;8.10;;;5.80;;
12968;SDS011;6549;53.128;8.182;2022-08-25T17:06:16;10.20;;;6.13;;
12968;SDS011;6549;53.128;8.182;2022-08-25T17:09:17;12.70;;;6.13;;
12968;SDS011;6549;53.128;8.182;2022-08-25T17:12:17;9.93;;;6.27;;
12968;SDS011;6549;53.128;8.182;2022-08-25T17:15:19;14.77;;;6.53;;
12968;SDS011;6549;53.128;8.182;2022-08-25T17:18:22;13.70;;;7.13;;
12968;SDS011;6549;53.128;8.182;2022-08-25T17:21:23;10.50;;;6.80;;
12968;SDS011;6549;53.128;8.182;2022-08-25T17:24:25;11.05;;;6.35;;
12968;SDS011;6549;53.128;8.182;2022-08-25T17:27:26;9.32;;;7.03;;
12968;SDS011;6549;53.128;8.182;2022-08-25T17:30:26;12.48;;;7.10;;
12968;SDS011;6549;53.128;8.182;2022-08-25T17:33:27;10.00;;;6.00;;
12968;SDS011;6549;53.128;8.182;2022-08-25T17:36:27;7.88;;;6.65;;
12968;SDS011;6549;53.128;8.182;2022-08-25T17:39:28;12.65;;;7.22;;
12968;SDS011;6549;53.128;8.182;2022-08-25T17:42:28;8.25;;;6.70;;
12968;SDS011;6549;53.128;8.182;2022-08-25T17:45:28;11.57;;;7.40;;
12968;SDS011;6549;53.128;8.182;2022-08-25T17:48:29;9.95;;;6.85;;
12968;SDS011;6549;53.128;8.182;2022-08-25T17:51:30;8.07;;;6.67;;
12968;SDS011;6549;53.128;8.182;2022-08-25T17:54:31;8.52;;;6.45;;
12968;SDS011;6549;53.128;8.182;2022-08-25T17:57:31;7.95;;;6.40;;
12968;SDS011;6549;53.128;8.182;2022-08-25T18:00:32;12.05;;;6.97;;
12968;SDS011;6549;53.128;8.182;2022-08-25T18:03:33;9.63;;;6.77;;
12968;SDS011;6549;53.128;8.182;2022-08-25T18:06:34;9.10;;;6.97;;
12968;SDS011;6549;53.128;8.182;2022-08-25T18:09:34;10.20;;;6.88;;
12968;SDS011;6549;53.128;8.182;2022-08-25T18:12:35;8.07;;;6.32;;
12968;SDS011;6549;53.128;8.182;2022-08-25T18:15:37;10.93;;;6.55;;
12968;SDS011;6549;53.128;8.182;2022-08-25T18:18:38;12.18;;;7.35;;
12968;SDS011;6549;53.128;8.182;2022-08-25T18:21:39;9.85;;;6.85;;
12968;SDS011;6549;53.128;8.182;2022-08-25T18:24:40;10.43;;;6.95;;
12968;SDS011;6549;53.128;8.182;2022-08-25T18:27:40;11.77;;;7.05;;
12968;SDS011;6549;53.128;8.182;2022-08-25T18:30:41;14.13;;;7.50;;
12968;SDS011;6549;53.128;8.182;2022-08-25T18:33:42;11.15;;;6.93;;
12968;SDS011;6549;53.128;8.182;2022-08-25T18:36:43;10.45;;;7.53;;
12968;SDS011;6549;53.128;8.182;2022-08-25T18:39:44;10.05;;;7.25;;
12968;SDS011;6549;53.128;8.182;2022-08-25T18:43:07;9.20;;;6.85;;
12968;SDS011;6549;53.128;8.182;2022-08-25T18:46:09;12.82;;;7.18;;
12968;SDS011;6549;53.128;8.182;2022-08-25T18:49:09;10.35;;;7.03;;
12968;SDS011;6549;53.128;8.182;2022-08-25T18:52:10;10.73;;;6.70;;
12968;SDS011;6549;53.128;8.182;2022-08-25T18:55:10;13.20;;;7.55;;
12968;SDS011;6549;53.128;8.182;2022-08-25T18:58:12;9.68;;;6.82;;
12968;SDS011;6549;53.128;8.182;2022-08-25T19:01:14;8.77;;;7.13;;
12968;SDS011;6549;53.128;8.182;2022-08-25T19:04:15;11.85;;;7.18;;
12968;SDS011;6549;53.128;8.182;2022-08-25T19:07:15;18.73;;;8.17;;
12968;SDS011;6549;53.128;8.182;2022-08-25T19:10:15;8.38;;;6.50;;
12968;SDS011;6549;53.128;8.182;2022-08-25T19:13:16;12.45;;;7.85;;
12968;SDS011;6549;53.128;8.182;2022-08-25T19:16:19;9.40;;;6.75;;
12968;SDS011;6549;53.128;8.182;2022-08-25T19:19:30;11.43;;;7.20;;
12968;SDS011;6549;53.128;8.182;2022-08-25T19:22:30;11.43;;;7.10;;
12968;SDS011;6549;53.128;8.182;2022-08-25T19:25:30;12.10;;;7.00;;
12968;SDS011;6549;53.128;8.182;2022-08-25T19:28:31;11.45;;;6.95;;
12968;SDS011;6549;53.128;8.182;2022-08-25T19:31:32;16.30;;;8.05;;
12968;SDS011;6549;53.128;8.182;2022-08-25T19:34:34;12.88;;;6.80;;
12968;SDS011;6549;53.128;8.182;2022-08-25T19:37:38;14.57;;;8.05;;
12968;SDS011;6549;53.128;8.182;2022-08-25T19:40:38;12.02;;;6.78;;
12968;SDS011;6549;53.128;8.182;2022-08-25T19:43:39;15.30;;;7.38;;
12968;SDS011;6549;53.128;8.182;2022-08-25T19:46:41;14.85;;;7.40;;
12968;SDS011;6549;53.128;8.182;2022-08-25T19:49:42;8.88;;;7.07;;
12968;SDS011;6549;53.128;8.182;2022-08-25T19:52:44;10.45;;;7.60;;
12968;SDS011;6549;53.128;8.182;2022-08-25T19:55:45;11.77;;;7.07;;
12968;SDS011;6549;53.128;8.182;2022-08-25T19:58:45;12.95;;;7.30;;
12968;SDS011;6549;53.128;8.182;2022-08-25T20:01:46;14.27;;;7.60;;
12968;SDS011;6549;53.128;8.182;2022-08-25T20:04:48;9.48;;;7.05;;
12968;SDS011;6549;53.128;8.182;2022-08-25T20:07:52;11.60;;;7.53;;
12968;SDS011;6549;53.128;8.182;2022-08-25T20:10:53;11.50;;;7.15;;
12968;SDS011;6549;53.128;8.182;2022-08-25T20:13:53;12.32;;;7.30;;
12968;SDS011;6549;53.128;8.182;2022-08-25T20:16:54;11.32;;;7.45;;
12968;SDS011;6549;53.128;8.182;2022-08-25T20:19:56;12.37;;;7.50;;